sensor_id;sensor_type;location;lat;lon;timestamp;pressure;altitude;pressure_sealevel;temperature;humidity
5284;BME280;15377;48.540;9.268;2023-03-01T13:23:58;97568.06;;;7.24;83.45
5284;BME280;15377;48.540;9.268;2023-03-01T13:26:23;97555.38;;;7.17;82.31
5284;BME280;15377;48.540;9.268;2023-03-01T13:28:54;97561.44;;;7.13;84.38
5284;BME280;15377;48.540;9.268;2023-03-01T13:36:51;97545.69;;;6.83;85.00
5284;BME280;15377;48.540;9.268;2023-03-01T13:39:39;97565.88;;;6.98;86.02
5284;BME280;15377;48.540;9.268;2023-03-01T13:42:32;97558.09;;;6.96;86.44
5284;BME280;15377;48.540;9.268;2023-03-01T13:44:57;97547.78;;;7.00;85.98
5284;BME280;15377;48.540;9.268;2023-03-01T13:47:23;97574.16;;;7.07;85.45
5284;BME280;15377;48.540;9.268;2023-03-01T13:52:40;97558.03;;;7.08;85.70
5284;BME280;15377;48.540;9.268;2023-03-01T13:55:35;97556.19;;;7.06;85.73
5284;BME280;15377;48.540;9.268;2023-03-01T13:58:05;97552.75;;;6.93;86.00
5284;BME280;15377;48.540;9.268;2023-03-01T14:00:39;97551.09;;;6.95;86.28
5284;BME280;15377;48.540;9.268;2023-03-01T14:05:37;97550.84;;;7.02;85.62
5284;BME280;15377;48.540;9.268;2023-03-01T14:08:04;97544.59;;;7.02;84.89
5284;BME280;15377;48.540;9.268;2023-03-01T14:10:36;97559.88;;;7.11;86.11
5284;BME280;15377;48.540;9.268;2023-03-01T14:13:20;97553.97;;;7.13;84.66
5284;BME280;15377;48.540;9.268;2023-03-01T14:19:20;97556.31;;;7.23;86.17
5284;BME280;15377;48.540;9.268;2023-03-01T14:21:58;97562.38;;;7.18;84.01
5284;BME280;15377;48.540;9.268;2023-03-01T14:24:27;97563.69;;;7.14;84.68
5284;BME280;15377;48.540;9.268;2023-03-01T14:26:52;97561.63;;;7.18;85.03
5284;BME280;15377;48.540;9.268;2023-03-01T14:29:43;97540.59;;;7.15;84.41
5284;BME280;15377;48.540;9.268;2023-03-01T14:32:20;97567.91;;;7.27;85.31
5284;BME280;15377;48.540;9.268;2023-03-01T14:34:48;97568.06;;;7.24;85.55
5284;BME280;15377;48.540;9.268;2023-03-01T14:37:33;97563.84;;;7.32;85.08
5284;BME280;15377;48.540;9.268;2023-03-01T14:40:02;97571.09;;;7.47;85.13
5284;BME280;15377;48.540;9.268;2023-03-01T14:42:31;97565.94;;;7.49;83.43
5284;BME280;15377;48.540;9.268;2023-03-01T14:45:00;97555.56;;;7.44;83.70
5284;BME280;15377;48.540;9.268;2023-03-01T14:47:30;97559.53;;;7.43;84.56
5284;BME280;15377;48.540;9.268;2023-03-01T14:50:04;97568.03;;;7.45;83.21
5284;BME280;15377;48.540;9.268;2023-03-01T14:52:36;97566.09;;;7.55;82.43
5284;BME280;15377;48.540;9.268;2023-03-01T14:55:05;97570.56;;;7.61;83.31
5284;BME280;15377;48.540;9.268;2023-03-01T14:57:31;97555.94;;;7.55;83.97
5284;BME280;15377;48.540;9.268;2023-03-01T15:00:02;97562.94;;;7.56;83.14
5284;BME280;15377;48.540;9.268;2023-03-01T15:02:31;97566.56;;;7.53;82.73
5284;BME280;15377;48.540;9.268;2023-03-01T15:04:58;97560.63;;;7.55;82.58
5284;BME280;15377;48.540;9.268;2023-03-01T15:07:34;97543.84;;;7.44;84.10
5284;BME280;15377;48.540;9.268;2023-03-01T15:10:02;97554.91;;;7.40;84.84
5284;BME280;15377;48.540;9.268;2023-03-01T15:14:57;97566.78;;;7.37;86.41
5284;BME280;15377;48.540;9.268;2023-03-01T15:17:32;97571.03;;;7.38;86.61
5284;BME280;15377;48.540;9.268;2023-03-01T15:20:00;97575.00;;;7.37;85.64
5284;BME280;15377;48.540;9.268;2023-03-01T15:22:26;97576.44;;;7.29;86.70
5284;BME280;15377;48.540;9.268;2023-03-01T15:24:53;97575.50;;;7.23;86.17
5284;BME280;15377;48.540;9.268;2023-03-01T15:27:21;97568.19;;;7.20;86.97
5284;BME280;15377;48.540;9.268;2023-03-01T15:30:00;97563.56;;;7.17;86.56
5284;BME280;15377;48.540;9.268;2023-03-01T15:32:31;97559.75;;;7.15;86.25
5284;BME280;15377;48.540;9.268;2023-03-01T15:34:57;97549.72;;;7.12;87.86
5284;BME280;15377;48.540;9.268;2023-03-01T15:37:47;97540.66;;;7.03;88.38
5284;BME280;15377;48.540;9.268;2023-03-01T15:40:26;97541.00;;;7.05;88.43
5284;BME280;15377;48.540;9.268;2023-03-01T15:43:02;97528.78;;;6.97;88.74
5284;BME280;15377;48.540;9.268;2023-03-01T15:45:30;97537.53;;;6.92;88.58
5284;BME280;15377;48.540;9.268;2023-03-01T15:48:03;97526.28;;;6.90;88.67
5284;BME280;15377;48.540;9.268;2023-03-01T15:50:34;97530.88;;;6.93;89.76
5284;BME280;15377;48.540;9.268;2023-03-01T15:53:05;97534.81;;;6.92;89.45
5284;BME280;15377;48.540;9.268;2023-03-01T15:55:33;97537.34;;;6.86;89.28
5284;BME280;15377;48.540;9.268;2023-03-01T15:57:59;97532.75;;;6.83;88.98
5284;BME280;15377;48.540;9.268;2023-03-01T16:00:26;97524.34;;;6.78;89.40
5284;BME280;15377;48.540;9.268;2023-03-01T16:02:51;97528.06;;;6.84;88.36
5284;BME280;15377;48.540;9.268;2023-03-01T16:05:23;97525.56;;;6.77;88.43
5284;BME280;15377;48.540;9.268;2023-03-01T16:07:50;97525.13;;;6.78;87.70
5284;BME280;15377;48.540;9.268;2023-03-01T16:10:16;97529.19;;;6.74;88.09
5284;BME280;15377;48.540;9.268;2023-03-01T16:12:41;97530.06;;;6.71;88.27
5284;BME280;15377;48.540;9.268;2023-03-01T16:15:21;97528.22;;;6.68;88.05
5284;BME280;15377;48.540;9.268;2023-03-01T16:17:47;97520.06;;;6.55;87.59
5284;BME280;15377;48.540;9.268;2023-03-01T16:20:13;97530.88;;;6.59;87.78
5284;BME280;15377;48.540;9.268;2023-03-01T16:22:42;97506.34;;;6.34;88.01
5284;BME280;15377;48.540;9.268;2023-03-01T16:25:12;97544.22;;;6.57;88.82
5284;BME280;15377;48.540;9.268;2023-03-01T16:27:38;97532.13;;;6.33;89.54
5284;BME280;15377;48.540;9.268;2023-03-01T16:30:05;97541.41;;;6.35;89.80
5284;BME280;15377;48.540;9.268;2023-03-01T16:32:31;97547.66;;;6.36;89.66
5284;BME280;15377;48.540;9.268;2023-03-01T16:34:57;97529.19;;;6.27;89.62
5284;BME280;15377;48.540;9.268;2023-03-01T16:37:22;97540.91;;;6.28;89.85
5284;BME280;15377;48.540;9.268;2023-03-01T16:39:48;97548.78;;;6.26;90.68
5284;BME280;15377;48.540;9.268;2023-03-01T16:42:17;97549.22;;;6.24;89.70
5284;BME280;15377;48.540;9.268;2023-03-01T16:44:42;97552.59;;;6.16;90.28
5284;BME280;15377;48.540;9.268;2023-03-01T16:47:08;97559.06;;;6.09;90.96
5284;BME280;15377;48.540;9.268;2023-03-01T16:49:33;97539.84;;;5.88;91.94
5284;BME280;15377;48.540;9.268;2023-03-01T16:51:58;97561.47;;;5.95;92.02
5284;BME280;15377;48.540;9.268;2023-03-01T16:54:24;97564.53;;;5.97;92.14
5284;BME280;15377;48.540;9.268;2023-03-01T16:56:50;97575.66;;;5.90;91.98
5284;BME280;15377;48.540;9.268;2023-03-01T16:59:15;97583.31;;;5.95;92.14
5284;BME280;15377;48.540;9.268;2023-03-01T17:01:41;97582.88;;;5.84;93.00
5284;BME280;15377;48.540;9.268;2023-03-01T17:04:10;97594.84;;;5.74;93.35
5284;BME280;15377;48.540;9.268;2023-03-01T17:06:36;97595.94;;;5.64;94.31
5284;BME280;15377;48.540;9.268;2023-03-01T17:09:02;97590.56;;;5.60;94.71
5284;BME280;15377;48.540;9.268;2023-03-01T17:11:27;97596.97;;;5.54;95.41
5284;BME280;15377;48.540;9.268;2023-03-01T17:13:52;97592.28;;;5.42;95.80
5284;BME280;15377;48.540;9.268;2023-03-01T17:16:19;97600.47;;;5.42;96.08
5284;BME280;15377;48.540;9.268;2023-03-01T17:18:45;97599.44;;;5.36;96.68
5284;BME280;15377;48.540;9.268;2023-03-01T17:21:14;97602.03;;;5.27;97.35
5284;BME280;15377;48.540;9.268;2023-03-01T17:23:42;97612.63;;;5.25;98.15
5284;BME280;15377;48.540;9.268;2023-03-01T17:26:08;97607.28;;;5.21;98.20
5284;BME280;15377;48.540;9.268;2023-03-01T17:28:35;97602.97;;;5.08;98.78
5284;BME280;15377;48.540;9.268;2023-03-01T17:31:02;97594.72;;;4.95;99.74
5284;BME280;15377;48.540;9.268;2023-03-01T17:33:28;97610.56;;;5.00;100.00
5284;BME280;15377;48.540;9.268;2023-03-01T17:35:55;97615.78;;;4.95;100.00
5284;BME280;15377;48.540;9.268;2023-03-01T17:38:21;97620.53;;;4.91;100.00
5284;BME280;15377;48.540;9.268;2023-03-01T17:40:46;97618.25;;;4.89;100.00
5284;BME280;15377;48.540;9.268;2023-03-01T17:43:12;97609.16;;;4.80;100.00
5284;BME280;15377;48.540;9.268;2023-03-01T17:45:38;97613.66;;;4.86;100.00
5284;BME280;15377;48.540;9.268;2023-03-01T17:48:05;97635.03;;;4.88;100.00
5284;BME280;15377;48.540;9.268;2023-03-01T17:50:32;97631.44;;;4.91;100.00
5284;BME280;15377;48.540;9.268;2023-03-01T17:52:57;97618.25;;;4.89;100.00
5284;BME280;15377;48.540;9.268;2023-03-01T17:55:23;97627.19;;;4.90;100.00
5284;BME280;15377;48.540;9.268;2023-03-01T17:57:48;97621.09;;;4.86;100.00
5284;BME280;15377;48.540;9.268;2023-03-01T18:00:15;97620.75;;;4.84;100.00
5284;BME280;15377;48.540;9.268;2023-03-01T18:02:41;97614.44;;;4.71;100.00
5284;BME280;15377;48.540;9.268;2023-03-01T18:05:07;97629.28;;;4.70;100.00
5284;BME280;15377;48.540;9.268;2023-03-01T18:07:33;97634.38;;;4.52;100.00
5284;BME280;15377;48.540;9.268;2023-03-01T18:09:59;97626.66;;;4.34;100.00
5284;BME280;15377;48.540;9.268;2023-03-01T18:12:24;97627.03;;;4.17;100.00
5284;BME280;15377;48.540;9.268;2023-03-01T18:14:50;97630.06;;;3.87;100.00
5284;BME280;15377;48.540;9.268;2023-03-01T18:17:19;97607.59;;;3.47;100.00
5284;BME280;15377;48.540;9.268;2023-03-01T18:19:45;97628.03;;;3.36;100.00
5284;BME280;15377;48.540;9.268;2023-03-01T18:22:10;97635.91;;;3.31;100.00
5284;BME280;15377;48.540;9.268;2023-03-01T18:24:36;97634.50;;;3.23;100.00
5284;BME280;15377;48.540;9.268;2023-03-01T18:27:02;97623.03;;;3.12;100.00
5284;BME280;15377;48.540;9.268;2023-03-01T18:29:28;97632.25;;;3.18;100.00
5284;BME280;15377;48.540;9.268;2023-03-01T18:31:53;97624.50;;;3.16;100.00
5284;BME280;15377;48.540;9.268;2023-03-01T18:34:19;97622.00;;;3.25;100.00
5284;BME280;15377;48.540;9.268;2023-03-01T18:36:44;97625.31;;;3.36;100.00
5284;BME280;15377;48.540;9.268;2023-03-01T18:39:10;97632.53;;;3.42;100.00
5284;BME280;15377;48.540;9.268;2023-03-01T18:41:36;97626.97;;;3.49;100.00
5284;BME280;15377;48.540;9.268;2023-03-01T18:44:02;97610.38;;;3.44;100.00
5284;BME280;15377;48.540;9.268;2023-03-01T18:46:29;97624.50;;;3.55;100.00
5284;BME280;15377;48.540;9.268;2023-03-01T18:48:54;97611.50;;;3.47;100.00
5284;BME280;15377;48.540;9.268;2023-03-01T18:51:23;97605.28;;;3.46;100.00
5284;BME280;15377;48.540;9.268;2023-03-01T18:53:49;97629.75;;;3.46;100.00
5284;BME280;15377;48.540;9.268;2023-03-01T18:56:14;97622.28;;;3.50;100.00
5284;BME280;15377;48.540;9.268;2023-03-01T18:58:41;97619.91;;;3.52;100.00
5284;BME280;15377;48.540;9.268;2023-03-01T19:01:18;97608.34;;;3.48;100.00
5284;BME280;15377;48.540;9.268;2023-03-01T19:03:44;97612.09;;;3.54;100.00
5284;BME280;15377;48.540;9.268;2023-03-01T19:06:09;97605.75;;;3.41;100.00
5284;BME280;15377;48.540;9.268;2023-03-01T19:08:35;97597.91;;;3.27;100.00
5284;BME280;15377;48.540;9.268;2023-03-01T19:11:03;97597.66;;;3.18;100.00
5284;BME280;15377;48.540;9.268;2023-03-01T19:13:29;97599.78;;;3.11;100.00
5284;BME280;15377;48.540;9.268;2023-03-01T19:16:09;97610.09;;;3.00;100.00
5284;BME280;15377;48.540;9.268;2023-03-01T19:18:36;97598.69;;;2.85;100.00
5284;BME280;15377;48.540;9.268;2023-03-01T19:21:04;97600.97;;;2.67;100.00
5284;BME280;15377;48.540;9.268;2023-03-01T19:23:31;97598.47;;;2.53;100.00
5284;BME280;15377;48.540;9.268;2023-03-01T19:26:12;97608.03;;;2.38;100.00
5284;BME280;15377;48.540;9.268;2023-03-01T19:28:39;97600.50;;;2.26;100.00
5284;BME280;15377;48.540;9.268;2023-03-01T19:31:09;97592.56;;;2.12;100.00
5284;BME280;15377;48.540;9.268;2023-03-01T19:33:36;97584.19;;;2.03;100.00
5284;BME280;15377;48.540;9.268;2023-03-01T19:36:01;97588.13;;;1.99;100.00
5284;BME280;15377;48.540;9.268;2023-03-01T19:38:27;97578.13;;;1.92;100.00
5284;BME280;15377;48.540;9.268;2023-03-01T19:40:54;97577.56;;;2.04;100.00
5284;BME280;15377;48.540;9.268;2023-03-01T19:43:20;97576.63;;;2.14;100.00
5284;BME280;15377;48.540;9.268;2023-03-01T19:45:52;97580.41;;;2.20;100.00
5284;BME280;15377;48.540;9.268;2023-03-01T19:48:18;97586.81;;;2.33;100.00
5284;BME280;15377;48.540;9.268;2023-03-01T19:50:44;97573.69;;;2.28;100.00
5284;BME280;15377;48.540;9.268;2023-03-01T19:53:13;97573.34;;;2.26;100.00
5284;BME280;15377;48.540;9.268;2023-03-01T19:55:39;97571.03;;;2.25;100.00
5284;BME280;15377;48.540;9.268;2023-03-01T19:58:05;97586.44;;;2.31;100.00
5284;BME280;15377;48.540;9.268;2023-03-01T20:00:32;97571.81;;;2.25;100.00
5284;BME280;15377;48.540;9.268;2023-03-01T20:02:57;97566.50;;;2.18;100.00
5284;BME280;15377;48.540;9.268;2023-03-01T20:05:23;97575.81;;;2.17;100.00
5284;BME280;15377;48.540;9.268;2023-03-01T20:07:49;97591.38;;;2.13;100.00
5284;BME280;15377;48.540;9.268;2023-03-01T20:10:15;97574.50;;;2.02;100.00
5284;BME280;15377;48.540;9.268;2023-03-01T20:12:41;97581.47;;;2.03;100.00
5284;BME280;15377;48.540;9.268;2023-03-01T20:15:07;97590.00;;;2.02;100.00
5284;BME280;15377;48.540;9.268;2023-03-01T20:17:32;97575.38;;;1.96;100.00
5284;BME280;15377;48.540;9.268;2023-03-01T20:19:58;97578.47;;;1.98;100.00
5284;BME280;15377;48.540;9.268;2023-03-01T20:22:23;97570.72;;;1.96;100.00
5284;BME280;15377;48.540;9.268;2023-03-01T20:24:48;97573.19;;;1.87;100.00
5284;BME280;15377;48.540;9.268;2023-03-01T20:27:14;97570.53;;;1.84;100.00
5284;BME280;15377;48.540;9.268;2023-03-01T20:29:39;97575.75;;;1.71;100.00
5284;BME280;15377;48.540;9.268;2023-03-01T20:32:04;97577.97;;;1.76;100.00
5284;BME280;15377;48.540;9.268;2023-03-01T20:34:30;97577.28;;;1.72;100.00
5284;BME280;15377;48.540;9.268;2023-03-01T20:36:55;97572.69;;;1.69;100.00
5284;BME280;15377;48.540;9.268;2023-03-01T20:39:20;97577.28;;;1.72;100.00
5284;BME280;15377;48.540;9.268;2023-03-01T20:41:46;97573.84;;;1.68;100.00
5284;BME280;15377;48.540;9.268;2023-03-01T20:44:11;97579.75;;;1.63;100.00
5284;BME280;15377;48.540;9.268;2023-03-01T20:46:37;97580.53;;;1.60;100.00
5284;BME280;15377;48.540;9.268;2023-03-01T20:49:03;97573.31;;;1.50;100.00
5284;BME280;15377;48.540;9.268;2023-03-01T20:51:29;97583.81;;;1.48;100.00
5284;BME280;15377;48.540;9.268;2023-03-01T20:53:54;97573.63;;;1.26;100.00
5284;BME280;15377;48.540;9.268;2023-03-01T20:56:21;97576.28;;;1.29;100.00
5284;BME280;15377;48.540;9.268;2023-03-01T20:58:47;97578.06;;;1.13;100.00
5284;BME280;15377;48.540;9.268;2023-03-01T21:01:17;97579.88;;;0.89;100.00
5284;BME280;15377;48.540;9.268;2023-03-01T21:03:43;97577.59;;;0.88;100.00
5284;BME280;15377;48.540;9.268;2023-03-01T21:06:09;97570.75;;;0.76;100.00
5284;BME280;15377;48.540;9.268;2023-03-01T21:08:35;97571.13;;;0.75;100.00
5284;BME280;15377;48.540;9.268;2023-03-01T21:11:01;97578.13;;;0.72;100.00
5284;BME280;15377;48.540;9.268;2023-03-01T21:13:27;97557.44;;;0.52;100.00
5284;BME280;15377;48.540;9.268;2023-03-01T21:16:01;97580.19;;;0.61;100.00
5284;BME280;15377;48.540;9.268;2023-03-01T21:18:29;97576.38;;;0.55;100.00
5284;BME280;15377;48.540;9.268;2023-03-01T21:21:03;97568.75;;;0.43;100.00
5284;BME280;15377;48.540;9.268;2023-03-01T21:23:30;97561.94;;;0.28;100.00
5284;BME280;15377;48.540;9.268;2023-03-01T21:26:07;97574.28;;;0.33;100.00
5284;BME280;15377;48.540;9.268;2023-03-01T21:28:35;97571.59;;;0.29;100.00
5284;BME280;15377;48.540;9.268;2023-03-01T21:31:14;97577.44;;;0.21;100.00
5284;BME280;15377;48.540;9.268;2023-03-01T21:33:45;97570.66;;;0.02;100.00
5284;BME280;15377;48.540;9.268;2023-03-01T21:36:11;97569.22;;;-0.16;100.00
5284;BME280;15377;48.540;9.268;2023-03-01T21:38:39;97567.72;;;-0.20;100.00
5284;BME280;15377;48.540;9.268;2023-03-01T21:41:07;97559.25;;;-0.22;100.00
5284;BME280;15377;48.540;9.268;2023-03-01T21:43:33;97556.13;;;-0.17;100.00
5284;BME280;15377;48.540;9.268;2023-03-01T21:46:04;97549.56;;;-0.16;100.00
5284;BME280;15377;48.540;9.268;2023-03-01T21:48:30;97539.09;;;-0.14;100.00
5284;BME280;15377;48.540;9.268;2023-03-01T21:50:57;97544.03;;;-0.03;100.00
5284;BME280;15377;48.540;9.268;2023-03-01T21:53:24;97545.59;;;-0.05;100.00
5284;BME280;15377;48.540;9.268;2023-03-01T21:55:50;97542.91;;;-0.05;100.00
5284;BME280;15377;48.540;9.268;2023-03-01T21:58:17;97539.34;;;0.01;100.00
5284;BME280;15377;48.540;9.268;2023-03-01T22:00:43;97542.81;;;0.05;100.00
5284;BME280;15377;48.540;9.268;2023-03-01T22:03:09;97541.34;;;-0.03;100.00
5284;BME280;15377;48.540;9.268;2023-03-01T22:05:37;97542.50;;;-0.03;100.00
5284;BME280;15377;48.540;9.268;2023-03-01T22:08:02;97519.13;;;-0.27;100.00
5284;BME280;15377;48.540;9.268;2023-03-01T22:10:29;97534.50;;;-0.17;100.00
5284;BME280;15377;48.540;9.268;2023-03-01T22:12:55;97534.53;;;-0.24;100.00
5284;BME280;15377;48.540;9.268;2023-03-01T22:15:22;97532.34;;;-0.43;100.00
5284;BME280;15377;48.540;9.268;2023-03-01T22:17:48;97531.63;;;-0.47;100.00
5284;BME280;15377;48.540;9.268;2023-03-01T22:20:16;97517.81;;;-0.63;100.00
5284;BME280;15377;48.540;9.268;2023-03-01T22:22:42;97530.97;;;-0.65;100.00
5284;BME280;15377;48.540;9.268;2023-03-01T22:25:09;97537.16;;;-0.68;100.00
5284;BME280;15377;48.540;9.268;2023-03-01T22:27:35;97517.53;;;-0.79;100.00
5284;BME280;15377;48.540;9.268;2023-03-01T22:30:07;97531.00;;;-0.72;100.00
5284;BME280;15377;48.540;9.268;2023-03-01T22:32:33;97506.34;;;-0.81;100.00
5284;BME280;15377;48.540;9.268;2023-03-01T22:34:59;97524.09;;;-0.80;100.00
5284;BME280;15377;48.540;9.268;2023-03-01T22:37:24;97530.19;;;-0.66;100.00
5284;BME280;15377;48.540;9.268;2023-03-01T22:39:50;97524.06;;;-0.73;100.00
5284;BME280;15377;48.540;9.268;2023-03-01T22:42:15;97506.41;;;-0.88;100.00
5284;BME280;15377;48.540;9.268;2023-03-01T22:44:41;97520.22;;;-0.79;100.00
5284;BME280;15377;48.540;9.268;2023-03-01T22:47:06;97519.06;;;-0.75;100.00
5284;BME280;15377;48.540;9.268;2023-03-01T22:49:32;97529.47;;;-0.73;100.00
5284;BME280;15377;48.540;9.268;2023-03-01T22:51:57;97530.66;;;-0.78;100.00
5284;BME280;15377;48.540;9.268;2023-03-01T22:54:23;97508.31;;;-0.92;100.00
5284;BME280;15377;48.540;9.268;2023-03-01T22:56:48;97514.44;;;-0.78;100.00
5284;BME280;15377;48.540;9.268;2023-03-01T22:59:15;97513.28;;;-0.77;100.00
5284;BME280;15377;48.540;9.268;2023-03-01T23:01:43;97517.88;;;-0.74;100.00
5284;BME280;15377;48.540;9.268;2023-03-01T23:04:09;97521.69;;;-0.64;100.00
5284;BME280;15377;48.540;9.268;2023-03-01T23:06:35;97524.03;;;-0.66;100.00
5284;BME280;15377;48.540;9.268;2023-03-01T23:09:15;97516.69;;;-0.69;100.00
5284;BME280;15377;48.540;9.268;2023-03-01T23:11:41;97512.47;;;-0.70;100.00
5284;BME280;15377;48.540;9.268;2023-03-01T23:14:06;97503.94;;;-0.65;100.00
5284;BME280;15377;48.540;9.268;2023-03-01T23:16:32;97492.00;;;-0.71;100.00
5284;BME280;15377;48.540;9.268;2023-03-01T23:18:57;97490.81;;;-0.63;100.00
5284;BME280;15377;48.540;9.268;2023-03-01T23:21:23;97489.28;;;-0.64;100.00
5284;BME280;15377;48.540;9.268;2023-03-01T23:23:49;97510.06;;;-0.58;100.00
5284;BME280;15377;48.540;9.268;2023-03-01T23:26:15;97511.59;;;-0.57;100.00
5284;BME280;15377;48.540;9.268;2023-03-01T23:28:41;97505.03;;;-0.59;100.00
5284;BME280;15377;48.540;9.268;2023-03-01T23:31:12;97501.97;;;-0.58;100.00
5284;BME280;15377;48.540;9.268;2023-03-01T23:33:38;97497.00;;;-0.66;100.00
5284;BME280;15377;48.540;9.268;2023-03-01T23:36:06;97498.56;;;-0.69;100.00
5284;BME280;15377;48.540;9.268;2023-03-01T23:38:31;97487.00;;;-0.76;100.00
5284;BME280;15377;48.540;9.268;2023-03-01T23:40:57;97472.84;;;-0.94;100.00
5284;BME280;15377;48.540;9.268;2023-03-01T23:43:22;97500.13;;;-0.75;100.00
5284;BME280;15377;48.540;9.268;2023-03-01T23:45:52;97501.31;;;-0.76;100.00
5284;BME280;15377;48.540;9.268;2023-03-01T23:48:17;97499.34;;;-0.75;100.00
5284;BME280;15377;48.540;9.268;2023-03-01T23:50:44;97504.03;;;-0.79;100.00
5284;BME280;15377;48.540;9.268;2023-03-01T23:53:15;97500.16;;;-0.78;100.00
5284;BME280;15377;48.540;9.268;2023-03-01T23:55:48;97498.63;;;-0.79;100.00
5284;BME280;15377;48.540;9.268;2023-03-01T23:58:15;97490.19;;;-0.88;100.00
